Time;durP1;ratioP1;P1;durP2;ratioP2;P2;SDS_P1;SDS_P2;PMS_P1;PMS_P2;Temp;Humidity;BMP_temperature;BMP_pressure;BME280_temperature;BME280_humidity;BME280_pressure;Samples;Min_cycle;Max_cycle;Signal;HPM_P1;HPM_P2
2024/01/10 00:00:38;;;;;;;10.57;5.40;;;;;;;-5.82;62.49;103019.06;4931206;29;20035;-86
2024/01/10 00:03:04;;;;;;;15.90;6.70;;;;;;;-5.83;62.83;103022.34;4931819;29;20484;-86
2024/01/10 00:05:29;;;;;;;10.70;5.47;;;;;;;-5.84;62.96;103014.66;4934025;29;20668;-86
2024/01/10 00:07:54;;;;;;;13.00;6.20;;;;;;;-5.84;62.82;103014.66;4934006;29;20655;-87
2024/01/10 00:10:21;;;;;;;10.90;5.70;;;;;;;-5.85;63.38;103012.88;4939317;29;20054;-87
2024/01/10 00:12:47;;;;;;;9.10;4.60;;;;;;;-5.86;62.64;103011.09;4932915;29;20071;-86
2024/01/10 00:15:12;;;;;;;7.77;4.20;;;;;;;-5.86;62.70;103011.97;4939029;29;20055;-86
2024/01/10 00:17:40;;;;;;;10.47;3.90;;;;;;;-5.86;62.79;103014.50;4933239;29;20032;-86
2024/01/10 00:20:06;;;;;;;8.80;3.60;;;;;;;-5.88;62.90;103005.91;4933096;29;20035;-86
2024/01/10 00:22:31;;;;;;;7.47;3.57;;;;;;;-5.88;63.39;103002.50;4944951;29;20031;-86
2024/01/10 00:24:57;;;;;;;7.37;3.73;;;;;;;-5.88;62.97;103003.38;4939064;29;20047;-86
2024/01/10 00:27:22;;;;;;;8.13;3.20;;;;;;;-5.91;63.34;102990.47;4940305;29;20024;-87
2024/01/10 00:29:47;;;;;;;6.90;3.33;;;;;;;-5.91;63.26;102997.19;4933578;29;20028;-86
2024/01/10 00:32:12;;;;;;;6.47;2.80;;;;;;;-5.92;63.13;102991.25;4945454;29;20535;-86
2024/01/10 00:34:38;;;;;;;5.67;2.90;;;;;;;-5.95;63.29;102996.94;4947379;29;20047;-86
2024/01/10 00:37:03;;;;;;;5.10;2.33;;;;;;;-5.96;63.31;102982.50;4950554;29;20097;-86
2024/01/10 00:39:28;;;;;;;6.00;2.50;;;;;;;-5.95;63.19;102991.00;4951677;28;20513;-86
2024/01/10 00:41:54;;;;;;;5.57;2.40;;;;;;;-5.96;63.52;102996.84;4949739;29;20031;-86
2024/01/10 00:44:19;;;;;;;5.50;2.40;;;;;;;-5.97;63.52;102992.53;4952204;28;20027;-86
2024/01/10 00:46:44;;;;;;;5.30;2.47;;;;;;;-5.96;63.60;102995.19;4951999;28;20046;-86
2024/01/10 00:49:09;;;;;;;4.30;2.20;;;;;;;-5.96;63.85;102985.03;4952463;29;20023;-85
2024/01/10 00:51:35;;;;;;;4.90;2.20;;;;;;;-5.96;63.46;102991.78;4951876;29;20574;-86
2024/01/10 00:54:00;;;;;;;5.20;1.97;;;;;;;-5.97;63.68;102993.41;4952122;28;20457;-86
2024/01/10 00:56:25;;;;;;;5.40;2.23;;;;;;;-5.98;63.82;102994.16;4950967;28;20070;-86
2024/01/10 00:58:51;;;;;;;4.07;2.10;;;;;;;-5.98;63.73;102994.16;4951506;28;20390;-86
2024/01/10 01:01:16;;;;;;;5.60;2.43;;;;;;;-5.99;63.90;102984.81;4951401;28;20027;-86
2024/01/10 01:03:41;;;;;;;6.50;2.40;;;;;;;-6.00;63.26;102980.56;4951401;29;20443;-87
2024/01/10 01:06:07;;;;;;;5.47;2.33;;;;;;;-5.98;63.63;102983.16;4951640;28;20038;-86
2024/01/10 01:08:32;;;;;;;6.13;2.37;;;;;;;-6.01;63.72;102981.31;4950172;29;20121;-86
2024/01/10 01:10:57;;;;;;;4.63;2.20;;;;;;;-6.02;63.95;102974.47;4951244;28;20043;-86
2024/01/10 01:13:23;;;;;;;3.83;2.00;;;;;;;-6.00;63.63;102977.13;4951208;29;20031;-86
2024/01/10 01:15:48;;;;;;;4.53;1.87;;;;;;;-6.01;63.38;102981.31;4949741;29;20031;-87
2024/01/10 01:18:14;;;;;;;6.17;2.37;;;;;;;-6.03;63.95;102975.25;4951428;28;20039;-86
2024/01/10 01:20:39;;;;;;;6.17;2.80;;;;;;;-6.04;63.94;102980.19;4951327;28;20035;-86
2024/01/10 01:23:05;;;;;;;5.97;2.80;;;;;;;-6.05;64.55;102979.31;4950871;28;20042;-86
2024/01/10 01:25:30;;;;;;;7.07;2.80;;;;;;;-6.05;65.05;102975.88;4951449;28;20720;-86
2024/01/10 01:27:56;;;;;;;5.77;2.27;;;;;;;-6.05;64.66;102984.38;4950140;28;20069;-86
2024/01/10 01:30:21;;;;;;;5.13;2.43;;;;;;;-6.05;64.67;102984.38;4951153;28;20031;-86
2024/01/10 01:32:47;;;;;;;7.03;3.00;;;;;;;-6.04;64.47;102982.72;4950453;28;20023;-87
2024/01/10 01:35:12;;;;;;;5.27;2.13;;;;;;;-6.05;64.12;102989.44;4966867;28;20046;-86
2024/01/10 01:37:37;;;;;;;7.07;2.70;;;;;;;-6.04;64.54;102988.69;4952518;28;20459;-86
2024/01/10 01:40:03;;;;;;;5.37;2.43;;;;;;;-6.07;64.49;102982.50;4948736;28;20496;-86
2024/01/10 01:42:29;;;;;;;4.77;2.13;;;;;;;-6.08;64.84;102979.06;4968176;28;20183;-86
2024/01/10 01:44:54;;;;;;;7.67;2.73;;;;;;;-6.09;65.41;102972.22;4968503;28;20049;-86
2024/01/10 01:47:19;;;;;;;6.70;2.63;;;;;;;-6.08;64.85;102974.00;4970283;28;20035;-86
2024/01/10 01:49:45;;;;;;;4.90;2.37;;;;;;;-6.11;64.88;102966.16;4970170;28;20023;-86
2024/01/10 01:52:10;;;;;;;5.87;2.13;;;;;;;-6.13;64.70;102975.28;4974039;28;20062;-86
2024/01/10 01:54:36;;;;;;;5.37;2.20;;;;;;;-6.15;64.66;102971.78;4951692;28;20030;-87
2024/01/10 01:57:01;;;;;;;5.17;2.17;;;;;;;-6.17;65.73;102971.63;4970300;28;20419;-86
2024/01/10 01:59:27;;;;;;;5.67;2.60;;;;;;;-6.17;65.35;102968.25;4970123;28;20106;-86
2024/01/10 02:01:54;;;;;;;5.53;2.30;;;;;;;-6.17;64.99;102973.31;4970175;28;20034;-86
2024/01/10 02:04:20;;;;;;;5.70;2.53;;;;;;;-6.19;65.69;102974.84;4968278;28;20027;-86
2024/01/10 02:06:45;;;;;;;5.50;2.20;;;;;;;-6.22;66.14;102969.53;4969840;28;20053;-86
2024/01/10 02:09:11;;;;;;;4.43;2.00;;;;;;;-6.22;65.79;102962.78;4955000;28;20488;-86
2024/01/10 02:11:36;;;;;;;4.70;1.83;;;;;;;-6.22;65.80;102961.91;4973811;28;20165;-86
2024/01/10 02:14:02;;;;;;;6.77;2.60;;;;;;;-6.22;65.98;102961.91;4973746;28;20495;-86
2024/01/10 02:16:27;;;;;;;4.90;2.13;;;;;;;-6.22;65.60;102969.53;4973710;28;20027;-87
2024/01/10 02:18:53;;;;;;;4.60;2.20;;;;;;;-6.22;65.66;102959.38;4973722;28;20037;-86
2024/01/10 02:21:22;;;;;;;4.23;2.00;;;;;;;-6.22;65.97;102959.38;4973779;28;20069;-86
2024/01/10 02:23:47;;;;;;;7.13;2.70;;;;;;;-6.23;66.23;102962.69;4972546;28;20034;-86
2024/01/10 02:26:13;;;;;;;4.87;2.37;;;;;;;-6.26;66.97;102968.41;4973052;28;20054;-86
2024/01/10 02:28:39;;;;;;;6.23;2.40;;;;;;;-6.25;66.08;102971.03;4972820;28;20030;-85
2024/01/10 02:31:04;;;;;;;5.97;2.40;;;;;;;-6.26;66.04;102964.22;4971648;28;20384;-86
2024/01/10 02:33:31;;;;;;;7.70;2.37;;;;;;;-6.23;66.58;102972.81;4972869;28;20416;-86
2024/01/10 02:35:57;;;;;;;5.30;2.47;;;;;;;-6.24;66.27;102966.88;4956303;28;20121;-86
2024/01/10 02:38:23;;;;;;;5.20;2.40;;;;;;;-6.24;66.55;102971.94;4972890;28;20604;-86
2024/01/10 02:40:49;;;;;;;5.63;2.10;;;;;;;-6.26;66.18;102964.22;4973608;28;20030;-86
2024/01/10 02:43:14;;;;;;;5.40;2.10;;;;;;;-6.26;66.94;102963.34;4973238;28;20033;-86
2024/01/10 02:45:40;;;;;;;5.33;2.13;;;;;;;-6.25;66.01;102958.38;4972534;28;20022;-86
2024/01/10 02:48:05;;;;;;;5.93;2.50;;;;;;;-6.25;65.90;102960.03;4973511;28;20031;-86
2024/01/10 02:50:30;;;;;;;6.37;2.63;;;;;;;-6.26;66.08;102959.16;4972796;28;20641;-86
2024/01/10 02:52:56;;;;;;;5.07;2.40;;;;;;;-6.25;66.59;102960.03;4973193;28;20054;-86
2024/01/10 02:55:21;;;;;;;5.83;2.30;;;;;;;-6.28;66.44;102955.59;4971788;28;20662;-86
2024/01/10 02:57:47;;;;;;;4.40;1.90;;;;;;;-6.27;66.30;102957.38;4972629;28;20041;-86
2024/01/10 03:00:13;;;;;;;5.37;2.33;;;;;;;-6.27;66.59;102953.97;4973191;28;20109;-86
2024/01/10 03:02:38;;;;;;;8.10;2.37;;;;;;;-6.28;66.60;102947.13;4972148;28;20031;-86
2024/01/10 03:05:04;;;;;;;7.23;2.50;;;;;;;-6.30;66.90;102947.00;4972698;28;20061;-86
2024/01/10 03:07:29;;;;;;;4.97;2.20;;;;;;;-6.31;66.61;102945.22;4973178;28;20019;-86
2024/01/10 03:09:54;;;;;;;5.80;2.50;;;;;;;-6.33;67.13;102939.19;4972792;28;20027;-86
2024/01/10 03:12:20;;;;;;;5.43;2.47;;;;;;;-6.32;66.97;102935.84;4972701;28;20093;-86
2024/01/10 03:14:45;;;;;;;5.50;2.40;;;;;;;-6.33;66.80;102931.59;4972014;28;20109;-86
2024/01/10 03:17:10;;;;;;;4.93;2.27;;;;;;;-6.32;66.74;102933.31;4979391;28;20055;-86
2024/01/10 03:19:42;;;;;;;6.23;2.50;;;;;;;-6.34;66.75;102929.81;4971433;28;20103;-86
2024/01/10 03:22:07;;;;;;;6.25;2.50;;;;;;;-6.35;67.21;102932.22;4950399;28;20495;-86
2024/01/10 03:24:32;;;;;;;5.10;2.30;;;;;;;-6.34;66.71;102928.91;4972414;28;20031;-86
2024/01/10 03:26:58;;;;;;;6.37;2.40;;;;;;;-6.37;67.45;102921.97;4972283;28;20034;-86
2024/01/10 03:29:23;;;;;;;5.30;2.50;;;;;;;-6.37;67.43;102927.03;4948807;28;20037;-86
2024/01/10 03:31:48;;;;;;;4.83;2.27;;;;;;;-6.39;67.13;102920.97;4972052;28;20027;-86
2024/01/10 03:34:14;;;;;;;7.47;2.70;;;;;;;-6.39;67.86;102913.38;4971365;28;20118;-85
2024/01/10 03:36:39;;;;;;;6.37;2.60;;;;;;;-6.37;68.12;102913.47;4971355;28;20026;-86
2024/01/10 03:39:04;;;;;;;5.30;2.37;;;;;;;-6.37;66.98;102924.50;4972193;28;20035;-86
2024/01/10 03:41:30;;;;;;;4.80;2.13;;;;;;;-6.38;67.06;102919.31;4972091;28;20037;-86
2024/01/10 03:43:55;;;;;;;5.60;2.50;;;;;;;-6.38;67.18;102916.78;4954681;28;20031;-86
2024/01/10 03:46:20;;;;;;;6.63;2.90;;;;;;;-6.38;67.42;102917.69;4946440;28;20036;-86
2024/01/10 03:48:49;;;;;;;4.67;2.30;;;;;;;-6.40;67.62;102909.94;4971999;28;20035;-86
2024/01/10 03:51:18;;;;;;;4.63;2.00;;;;;;;-6.40;67.51;102915.00;4971449;28;20693;-86
2024/01/10 03:53:44;;;;;;;6.53;2.67;;;;;;;-6.41;68.19;102915.81;4971579;28;20479;-86
2024/01/10 03:56:10;;;;;;;6.80;2.53;;;;;;;-6.41;67.94;102917.44;4972173;28;20178;-86
2024/01/10 03:58:35;;;;;;;5.77;2.70;;;;;;;-6.41;67.72;102917.44;4970472;28;20187;-86
2024/01/10 04:01:05;;;;;;;5.33;2.57;;;;;;;-6.40;67.62;102909.06;4971556;28;20064;-86
2024/01/10 04:03:30;;;;;;;6.30;2.40;;;;;;;-6.36;67.48;102905.13;4970962;28;20058;-86
2024/01/10 04:05:56;;;;;;;7.37;2.83;;;;;;;-6.38;67.45;102893.97;4971495;28;20031;-86
2024/01/10 04:08:21;;;;;;;6.47;2.73;;;;;;;-6.42;68.32;102890.34;4970133;28;20039;-86
2024/01/10 04:10:46;;;;;;;5.77;2.33;;;;;;;-6.45;68.90;102895.16;4952295;28;20029;-86
2024/01/10 04:13:11;;;;;;;5.40;2.77;;;;;;;-6.45;68.04;102895.16;4971172;28;20066;-86
2024/01/10 04:15:37;;;;;;;6.47;2.80;;;;;;;-6.43;67.63;102893.63;4971409;28;20113;-86
2024/01/10 04:18:02;;;;;;;8.17;3.00;;;;;;;-6.45;68.39;102879.97;4971541;28;20022;-86
2024/01/10 04:20:28;;;;;;;4.93;2.20;;;;;;;-6.48;68.51;102874.66;4971840;28;20030;-86
2024/01/10 04:22:53;;;;;;;4.40;2.23;;;;;;;-6.48;68.34;102883.16;4948464;28;20117;-86
2024/01/10 04:25:18;;;;;;;5.83;2.43;;;;;;;-6.48;68.72;102887.31;4970635;28;20117;-86
2024/01/10 04:27:44;;;;;;;5.90;2.60;;;;;;;-6.48;67.76;102889.84;4971543;28;20031;-86
2024/01/10 04:30:10;;;;;;;6.37;2.47;;;;;;;-6.48;68.90;102884.78;4970814;28;20038;-86
2024/01/10 04:32:35;;;;;;;7.17;2.60;;;;;;;-6.49;68.58;102872.94;4952442;28;20662;-86
2024/01/10 04:35:00;;;;;;;5.63;2.37;;;;;;;-6.49;68.48;102878.84;4970508;28;20488;-86
2024/01/10 04:37:26;;;;;;;5.67;2.43;;;;;;;-6.50;68.58;102881.28;4970577;28;20062;-86
2024/01/10 04:39:51;;;;;;;5.20;2.27;;;;;;;-6.52;68.62;102872.69;4970835;28;20038;-87
2024/01/10 04:42:17;;;;;;;6.13;2.37;;;;;;;-6.51;68.79;102890.50;4970968;28;20109;-86
2024/01/10 04:44:42;;;;;;;4.63;2.07;;;;;;;-6.51;68.14;102894.72;4970325;28;20062;-86
2024/01/10 04:47:08;;;;;;;5.63;2.23;;;;;;;-6.51;68.37;102894.72;4976019;28;20039;-86
2024/01/10 04:49:33;;;;;;;5.70;2.30;;;;;;;-6.51;68.02;102894.72;4972861;28;20034;-86
2024/01/10 04:51:58;;;;;;;5.43;2.70;;;;;;;-6.52;68.21;102903.94;4970720;28;20031;-86
2024/01/10 04:54:24;;;;;;;6.87;2.70;;;;;;;-6.51;68.13;102898.09;4968369;28;20027;-85
2024/01/10 04:56:49;;;;;;;5.97;2.27;;;;;;;-6.53;68.90;102891.16;4968727;28;20053;-85
2024/01/10 04:59:15;;;;;;;6.53;2.40;;;;;;;-6.56;68.75;102890.16;4970057;28;20538;-86
2024/01/10 05:01:40;;;;;;;4.47;2.27;;;;;;;-6.58;68.76;102889.16;4970726;28;20122;-86
2024/01/10 05:04:06;;;;;;;7.67;2.63;;;;;;;-6.57;68.24;102885.88;4970763;28;20054;-86
2024/01/10 05:06:31;;;;;;;7.00;2.70;;;;;;;-6.59;68.53;102887.38;4952634;28;20041;-86
2024/01/10 05:08:58;;;;;;;6.50;2.60;;;;;;;-6.61;69.14;102878.78;4970705;28;20030;-86
2024/01/10 05:11:24;;;;;;;4.93;2.30;;;;;;;-6.60;68.48;102889.81;4970785;28;20038;-86
2024/01/10 05:13:50;;;;;;;5.47;1.97;;;;;;;-6.61;67.86;102896.50;4953671;28;20088;-86
2024/01/10 05:36:53;;;;;;;5.67;2.53;;;;;;;-6.74;69.55;102879.47;4960681;28;20614;-86
2024/01/10 05:39:20;;;;;;;4.63;1.97;;;;;;;-6.72;68.11;102879.63;4970558;28;20027;-86
2024/01/10 05:41:46;;;;;;;7.20;2.83;;;;;;;-6.76;69.38;102877.59;4970240;28;20027;-86
2024/01/10 05:44:11;;;;;;;6.87;2.53;;;;;;;-6.77;70.18;102886.84;4970282;28;20037;-86
2024/01/10 05:46:37;;;;;;;8.20;2.70;;;;;;;-6.79;69.58;102879.88;4967345;28;20039;-86
2024/01/10 05:49:04;;;;;;;5.03;2.07;;;;;;;-6.82;69.66;102878.00;4969501;28;20060;-86
2024/01/10 05:51:29;;;;;;;6.30;2.70;;;;;;;-6.83;69.91;102882.97;4970396;28;20019;-86
2024/01/10 05:53:55;;;;;;;6.67;2.50;;;;;;;-6.83;69.58;102885.50;4969969;28;20031;-85
2024/01/10 05:56:20;;;;;;;7.27;2.53;;;;;;;-6.84;69.29;102887.13;4969556;28;20039;-86
2024/01/10 05:58:45;;;;;;;5.03;2.30;;;;;;;-6.86;69.44;102889.53;4969462;28;20045;-86
2024/01/10 06:01:11;;;;;;;7.73;2.60;;;;;;;-6.87;69.69;102885.25;4968178;28;20069;-86
2024/01/10 06:03:36;;;;;;;6.00;2.70;;;;;;;-6.88;70.08;102883.47;4948608;28;20026;-85
2024/01/10 06:06:03;;;;;;;4.70;2.10;;;;;;;-6.89;70.43;102886.78;4968994;28;20035;-86
2024/01/10 06:08:28;;;;;;;8.67;2.73;;;;;;;-6.89;70.02;102890.94;4967973;28;20057;-86
2024/01/10 06:10:54;;;;;;;5.63;2.33;;;;;;;-6.91;70.35;102884.84;4968392;28;20436;-86
2024/01/10 06:13:19;;;;;;;5.60;2.27;;;;;;;-6.92;70.00;102891.59;4969580;28;20022;-86
2024/01/10 06:15:45;;;;;;;6.63;2.30;;;;;;;-6.94;70.49;102887.16;4969845;28;20058;-86
2024/01/10 06:18:10;;;;;;;6.27;2.70;;;;;;;-6.95;70.63;102882.88;4969423;28;20031;-86
2024/01/10 06:20:37;;;;;;;7.40;2.67;;;;;;;-6.95;70.03;102881.22;4969763;28;20500;-86
2024/01/10 06:23:03;;;;;;;8.83;3.17;;;;;;;-6.96;70.71;102876.91;4969485;28;20118;-86
2024/01/10 06:25:29;;;;;;;5.90;2.77;;;;;;;-6.96;70.98;102876.91;4968159;28;20126;-85
2024/01/10 06:27:55;;;;;;;6.53;2.40;;;;;;;-6.95;70.05;102871.09;4969485;28;20715;-85
2024/01/10 06:30:20;;;;;;;6.07;2.23;;;;;;;-6.99;70.35;102881.72;4968529;28;20065;-85
2024/01/10 06:32:45;;;;;;;6.37;2.60;;;;;;;-6.98;70.03;102875.91;4965521;28;20061;-88
2024/01/10 06:35:11;;;;;;;6.03;2.33;;;;;;;-6.99;70.58;102869.06;4968305;28;20033;-88
2024/01/10 06:37:37;;;;;;;5.37;2.30;;;;;;;-7.02;70.71;102868.84;4951028;28;20085;-87
2024/01/10 06:40:04;;;;;;;6.27;2.40;;;;;;;-7.05;70.42;102861.88;4947048;28;20027;-87
2024/01/10 06:42:29;;;;;;;6.17;2.57;;;;;;;-7.07;70.83;102865.94;4969642;28;20122;-86
2024/01/10 06:44:55;;;;;;;5.03;2.10;;;;;;;-7.04;70.09;102876.31;4970189;28;20106;-90
2024/01/10 06:47:21;;;;;;;6.50;2.50;;;;;;;-7.05;70.95;102876.19;4967764;28;20447;-89
2024/01/10 06:49:46;;;;;;;7.33;2.87;;;;;;;-7.08;70.75;102878.47;4944075;28;20019;-89
2024/01/10 06:52:12;;;;;;;7.47;3.20;;;;;;;-7.08;71.01;102876.81;4969716;28;20058;-89
2024/01/10 06:54:37;;;;;;;6.67;2.90;;;;;;;-7.09;71.12;102871.66;4951822;28;20435;-90
2024/01/10 06:57:03;;;;;;;6.63;3.23;;;;;;;-7.10;70.96;102870.78;4954953;28;20026;-87
2024/01/10 06:59:28;;;;;;;7.13;3.20;;;;;;;-7.11;71.41;102871.53;4974114;28;20023;-89
2024/01/10 07:01:55;;;;;;;7.87;3.10;;;;;;;-7.10;71.44;102880.00;4973253;28;20106;-90
2024/01/10 07:04:23;;;;;;;7.93;3.30;;;;;;;-7.12;70.99;102877.34;4956500;28;20061;-84
2024/01/10 07:06:49;;;;;;;8.30;3.07;;;;;;;-7.13;71.09;102879.75;4971477;28;20110;-88
2024/01/10 07:09:19;;;;;;;11.20;3.13;;;;;;;-7.13;71.82;102879.75;4974558;28;20087;-89
2024/01/10 07:11:47;;;;;;;7.33;2.93;;;;;;;-7.11;71.52;102874.06;4957199;28;20026;-88
2024/01/10 07:14:14;;;;;;;8.67;3.50;;;;;;;-7.11;71.20;102883.28;4973501;28;20035;-88
2024/01/10 07:16:42;;;;;;;8.30;3.00;;;;;;;-7.10;71.15;102892.66;4977427;28;20026;-87
2024/01/10 07:19:13;;;;;;;7.80;3.10;;;;;;;-7.13;72.00;102884.81;4974933;28;20037;-88
2024/01/10 07:21:39;;;;;;;7.50;2.83;;;;;;;-7.12;70.73;102889.09;4976245;28;20033;-89
2024/01/10 07:24:04;;;;;;;7.03;2.90;;;;;;;-7.14;70.89;102894.06;4976892;28;20102;-88
2024/01/10 07:26:30;;;;;;;8.10;3.40;;;;;;;-7.16;71.64;102896.44;4957628;28;20130;-88
2024/01/10 07:28:55;;;;;;;8.90;4.10;;;;;;;-7.14;71.21;102899.13;4977231;28;20026;-89
2024/01/10 07:31:20;;;;;;;9.57;3.13;;;;;;;-7.11;71.72;102898.47;4975412;28;20047;-89
2024/01/10 07:33:46;;;;;;;7.30;3.33;;;;;;;-7.13;71.85;102895.81;4952847;28;20026;-90
2024/01/10 07:36:11;;;;;;;6.97;3.30;;;;;;;-7.12;72.04;102881.53;4997803;28;20384;-88
2024/01/10 07:38:36;;;;;;;7.73;3.00;;;;;;;-7.11;71.86;102878.22;4997818;28;20011;-88
2024/01/10 07:41:02;;;;;;;7.70;3.00;;;;;;;-7.15;71.51;102882.16;4996250;28;20030;-89
2024/01/10 07:43:27;;;;;;;7.67;2.77;;;;;;;-7.14;71.28;102877.97;4962354;28;20037;-88
2024/01/10 07:45:53;;;;;;;7.23;2.87;;;;;;;-7.13;72.28;102884.81;4974380;28;20035;-89
2024/01/10 07:48:18;;;;;;;7.23;3.13;;;;;;;-7.11;72.12;102880.75;4977629;28;20034;-89
2024/01/10 07:50:44;;;;;;;6.83;2.80;;;;;;;-7.11;71.27;102869.00;4972084;28;20379;-89
2024/01/10 07:53:10;;;;;;;7.53;2.93;;;;;;;-7.07;71.85;102862.53;4971957;28;20022;-89
2024/01/10 07:55:35;;;;;;;6.60;2.90;;;;;;;-7.09;71.71;102864.06;4974152;28;20540;-89
2024/01/10 07:58:01;;;;;;;7.90;2.93;;;;;;;-7.07;72.37;102870.13;4976781;28;20082;-89
2024/01/10 08:00:26;;;;;;;6.73;3.20;;;;;;;-7.07;71.90;102870.13;4976431;28;20030;-89
2024/01/10 08:02:52;;;;;;;8.07;3.30;;;;;;;-7.04;72.17;102867.84;4975702;28;20058;-89
2024/01/10 08:05:17;;;;;;;8.33;3.17;;;;;;;-7.02;71.77;102863.78;4975793;28;20029;-89
2024/01/10 08:07:43;;;;;;;7.23;3.27;;;;;;;-7.00;72.01;102869.84;4975119;28;20179;-90
2024/01/10 08:10:12;;;;;;;7.77;2.97;;;;;;;-6.99;72.44;102874.13;4957274;28;20110;-90
2024/01/10 08:12:39;;;;;;;6.57;2.80;;;;;;;-6.96;72.38;102876.03;4974853;28;20090;-89
2024/01/10 08:15:06;;;;;;;6.87;2.90;;;;;;;-6.94;72.02;102872.00;4956124;28;20029;-90
2024/01/10 08:17:32;;;;;;;6.37;2.80;;;;;;;-6.92;71.79;102871.34;4972499;28;20027;-88
2024/01/10 08:19:58;;;;;;;8.83;3.30;;;;;;;-6.91;71.85;102868.03;4954283;28;20033;-88
2024/01/10 08:22:23;;;;;;;7.90;3.33;;;;;;;-6.89;71.90;102881.69;4974510;28;20031;-89
2024/01/10 08:24:48;;;;;;;8.17;3.10;;;;;;;-6.88;72.21;102875.88;4973674;28;20193;-88
2024/01/10 08:27:16;;;;;;;7.70;2.70;;;;;;;-6.83;72.30;102881.28;4970972;28;20201;-88
2024/01/10 08:29:42;;;;;;;7.20;3.30;;;;;;;-6.78;71.72;102886.72;4956975;28;20873;-88
2024/01/10 08:32:07;;;;;;;6.43;3.30;;;;;;;-6.76;71.88;102887.72;4954350;28;20074;-89
2024/01/10 08:34:33;;;;;;;6.80;3.17;;;;;;;-6.75;71.63;102882.78;4953914;28;20027;-85
2024/01/10 08:36:58;;;;;;;9.77;3.43;;;;;;;-6.68;71.58;102884.16;4951548;28;20039;-89
2024/01/10 08:39:25;;;;;;;10.07;3.90;;;;;;;-6.67;72.22;102882.50;4950710;28;20047;-88
2024/01/10 08:41:53;;;;;;;8.80;3.90;;;;;;;-6.64;71.54;102881.06;4951156;28;20030;-92
2024/01/10 08:44:18;;;;;;;11.53;4.83;;;;;;;-6.60;71.65;102880.56;4972431;28;20368;-87
2024/01/10 08:46:44;;;;;;;11.63;4.03;;;;;;;-6.58;71.75;102883.22;4972982;28;20049;-91
2024/01/10 08:49:09;;;;;;;8.03;3.70;;;;;;;-6.56;71.91;102879.13;4972632;28;20069;-87
2024/01/10 08:51:36;;;;;;;11.13;4.63;;;;;;;-6.52;71.90;102877.75;4970969;28;20034;-87
2024/01/10 08:54:03;;;;;;;9.87;3.73;;;;;;;-6.52;71.91;102877.75;4971121;28;20105;-89
2024/01/10 08:56:29;;;;;;;8.83;4.07;;;;;;;-6.50;71.60;102878.75;4968273;28;20027;-89
2024/01/10 08:58:54;;;;;;;10.43;3.73;;;;;;;-6.45;71.36;102880.88;4953553;28;20434;-88
2024/01/10 09:01:19;;;;;;;9.33;4.00;;;;;;;-6.42;71.47;102882.75;4970846;28;20376;-87
2024/01/10 09:03:46;;;;;;;7.87;3.80;;;;;;;-6.39;72.00;102877.91;4971263;28;20053;-87
2024/01/10 09:06:11;;;;;;;7.23;3.27;;;;;;;-6.33;71.28;102888.53;4969481;28;20166;-88
2024/01/10 09:08:37;;;;;;;8.87;3.80;;;;;;;-6.31;71.57;102889.50;4969415;28;20113;-86
2024/01/10 09:11:02;;;;;;;7.10;3.83;;;;;;;-6.26;70.96;102883.16;4946986;28;20042;-87
2024/01/10 09:13:28;;;;;;;9.67;4.47;;;;;;;-6.22;70.45;102893.53;4969796;28;20023;-86
2024/01/10 09:15:53;;;;;;;9.67;3.90;;;;;;;-6.21;70.90;102895.28;4947088;28;20023;-88
2024/01/10 09:18:19;;;;;;;9.53;4.20;;;;;;;-6.18;70.90;102890.47;4951084;28;20492;-87
2024/01/10 09:20:44;;;;;;;9.23;4.07;;;;;;;-6.14;71.08;102897.50;4969261;28;20022;-89
2024/01/10 09:23:10;;;;;;;10.27;3.97;;;;;;;-6.10;70.78;102896.97;4970755;28;20094;-88
2024/01/10 09:25:36;;;;;;;10.80;4.20;;;;;;;-6.04;70.75;102899.09;4968325;28;20035;-88
2024/01/10 09:28:01;;;;;;;11.70;4.00;;;;;;;-6.01;71.02;102895.16;4948518;28;20090;-87
2024/01/10 09:30:27;;;;;;;8.20;4.07;;;;;;;-5.92;70.14;102888.97;4952137;28;20844;-84
2024/01/10 09:32:52;;;;;;;9.67;3.73;;;;;;;-5.90;70.09;102892.50;4951967;28;20514;-90
2024/01/10 09:35:17;;;;;;;9.03;3.97;;;;;;;-5.86;70.50;102886.91;4953404;28;20058;-91
2024/01/10 09:37:45;;;;;;;10.07;4.27;;;;;;;-5.83;70.01;102899.81;4949730;29;20051;-88
2024/01/10 09:40:13;;;;;;;9.00;3.80;;;;;;;-5.80;70.56;102900.91;4950386;29;20118;-92
2024/01/10 09:42:39;;;;;;;10.33;4.30;;;;;;;-5.75;70.26;102903.78;4945331;29;20027;-87
2024/01/10 09:45:05;;;;;;;11.43;4.57;;;;;;;-5.71;69.67;102905.78;4939023;28;20041;-89
2024/01/10 09:47:32;;;;;;;11.50;4.60;;;;;;;-5.69;69.34;102909.31;4945966;28;20386;-91
2024/01/10 09:49:57;;;;;;;10.07;4.20;;;;;;;-5.65;69.75;102902.81;4940824;28;20024;-90
2024/01/10 09:52:27;;;;;;;10.37;4.23;;;;;;;-5.58;69.33;102906.69;4948097;29;20406;-90
2024/01/10 09:54:57;;;;;;;10.30;4.87;;;;;;;-5.54;69.12;102909.56;4950765;29;20085;-89
2024/01/10 09:57:25;;;;;;;11.73;4.57;;;;;;;-5.50;69.14;102914.09;4951768;28;20085;-88
2024/01/10 09:59:51;;;;;;;10.97;4.63;;;;;;;-5.46;68.15;102905.03;4943591;28;20110;-89
2024/01/10 10:02:18;;;;;;;13.07;4.83;;;;;;;-5.39;68.43;102914.88;4949672;29;20038;-88
2024/01/10 10:05:07;;;;;;;10.40;4.20;;;;;;;-5.36;68.82;102904.97;4946335;29;20642;-90
2024/01/10 10:07:53;;;;;;;10.77;4.30;;;;;;;-5.30;68.13;102906.19;4947571;29;20070;-89
2024/01/10 10:10:19;;;;;;;9.70;4.43;;;;;;;-5.27;67.98;102908.94;4946177;28;20032;-88
2024/01/10 10:12:49;;;;;;;12.83;5.07;;;;;;;-5.23;68.00;102903.31;4948788;28;20063;-89
2024/01/10 10:15:16;;;;;;;10.23;4.10;;;;;;;-5.18;68.01;102899.47;4951620;28;20043;-88
2024/01/10 10:17:48;;;;;;;8.60;3.90;;;;;;;-5.13;67.92;102905.75;4941025;29;20066;-90
2024/01/10 10:20:14;;;;;;;;;;;;;;;-5.06;68.40;102902.00;4940289;29;20081;-91
2024/01/10 10:22:42;;;;;;;13.10;5.60;;;;;;;-5.03;67.86;102905.66;4951394;29;19922;-89
2024/01/10 10:25:07;;;;;;;12.90;4.47;;;;;;;-4.97;67.90;102894.16;4949613;29;20714;-87
2024/01/10 10:27:36;;;;;;;8.57;4.03;;;;;;;-4.91;67.74;102897.13;4939220;28;20042;-88
2024/01/10 10:30:02;;;;;;;10.80;4.90;;;;;;;-4.87;66.71;102896.56;4952115;28;20019;-89
2024/01/10 10:32:27;;;;;;;10.90;4.83;;;;;;;-4.85;66.80;102892.50;4951113;29;20425;-89
2024/01/10 10:34:55;;;;;;;9.93;4.70;;;;;;;-4.80;67.25;102886.09;4951095;29;20121;-88
2024/01/10 10:37:21;;;;;;;13.87;4.67;;;;;;;-4.75;67.48;102887.28;4942254;28;20056;-91
2024/01/10 10:39:46;;;;;;;11.13;5.07;;;;;;;-4.72;66.18;102881.56;4940025;29;20035;-88
2024/01/10 10:42:14;;;;;;;11.33;5.10;;;;;;;-4.69;65.76;102881.75;4926818;29;20034;-90
2024/01/10 10:44:42;;;;;;;13.33;5.23;;;;;;;-4.65;66.46;102868.50;4931134;29;20046;-95
2024/01/10 10:47:10;;;;;;;15.37;5.83;;;;;;;-4.56;66.15;102878.41;4932243;29;20023;-90
2024/01/10 10:49:42;;;;;;;13.57;5.40;;;;;;;-4.53;65.63;102882.84;4930119;29;20040;-88
2024/01/10 10:52:08;;;;;;;13.00;5.67;;;;;;;-4.49;66.03;102885.69;4933142;29;20111;-87
2024/01/10 10:54:38;;;;;;;13.67;5.50;;;;;;;-4.44;64.67;102878.38;4933271;29;20127;-91
2024/01/10 10:57:04;;;;;;;11.20;4.90;;;;;;;-4.39;65.38;102876.16;4929788;29;20086;-91
2024/01/10 10:59:34;;;;;;;11.43;5.20;;;;;;;-4.34;64.77;102875.69;4923493;29;20028;-90
2024/01/10 11:02:00;;;;;;;12.70;5.30;;;;;;;-4.28;65.03;102885.41;4932851;29;20054;-91
2024/01/10 11:04:26;;;;;;;13.30;5.60;;;;;;;-4.24;64.44;102877.19;4963440;23;20047;-91
2024/01/10 11:06:51;;;;;;;14.57;6.07;;;;;;;-4.20;64.64;102874.09;4979146;28;20030;-91
2024/01/10 11:09:21;;;;;;;14.13;5.63;;;;;;;-4.17;64.08;102869.22;4977678;28;20026;-89
2024/01/10 11:12:41;;;;;;;14.67;5.70;;;;;;;-4.10;63.81;102862.03;4957740;28;20385;-89
2024/01/10 11:15:23;;;;;;;14.47;6.03;;;;;;;-4.05;64.09;102869.16;4852721;29;20066;-88
2024/01/10 11:18:18;;;;;;;11.77;5.40;;;;;;;-3.98;64.13;102866.25;4837541;29;20492;-93
2024/01/10 11:21:20;;;;;;;10.97;4.83;;;;;;;-3.91;64.23;102861.56;4944524;28;20033;-93
2024/01/10 11:23:54;;;;;;;12.73;5.63;;;;;;;-3.86;63.31;102865.31;4955961;28;20507;-90
2024/01/10 11:26:20;;;;;;;12.57;5.63;;;;;;;-3.82;63.33;102863.06;4964374;28;20108;-91
2024/01/10 11:28:46;;;;;;;12.67;5.47;;;;;;;-3.75;64.00;102855.81;4965908;28;20026;-91
2024/01/10 11:31:13;;;;;;;11.37;4.83;;;;;;;-3.69;63.07;102858.78;4950689;28;20034;-89
2024/01/10 11:33:49;;;;;;;12.70;5.27;;;;;;;-3.63;62.77;102858.28;4949980;28;20054;-90
2024/01/10 11:36:16;;;;;;;13.47;5.30;;;;;;;-3.59;62.63;102851.00;4964038;28;20134;-88
2024/01/10 11:39:05;;;;;;;12.87;5.10;;;;;;;-3.53;64.04;102846.28;4952517;28;20031;-93
2024/01/10 11:41:36;;;;;;;12.97;5.20;;;;;;;-3.47;62.89;102850.88;4945794;28;20042;-89